Camp H M Smith, Hawaii
Current Conditions -  °F | °C
As of 4:53 AM on Tuesday 21 Oct 2014 (Local Time) from PHNL Reporting Station
Few Clouds Few Clouds  
Wind Chill: 75°   Ceiling: Unl
Heat Index: 75°   Visibility: 10mi
Dew Point: 70°   Wind: 3mph
Humidity: 84%   Direction: NA
Pressure: 29.96"   Gusts: NA
Location:  21.31°N, 157.86°W
Report Text: PHNL 211453Z VRB03KT 10SM FEW034 24/21 A2996 RMK AO2 SLP144 T02400211 56009 $
Loading
Personal Weather Stations






























Interactive Weather Map
Tropical Storm Tracking
New forecast layout! Learn more

10-Day Weather Forecast

Advertisements
Track Severe Weather on mobile